Terminal Aerodrome Forecast
Issued by NWS

Current Version | Previous Version | Graphics & Text | Print | Product List | Glossary On
Versions: 1 2 3 4 5 6 7 8 9 10 11 12 13 14 15 16 17 18 19
000
FTUS41 KRNK 162320
TAFLWB
TAF
KLWB 162320Z 1700/1724 30005KT P6SM SKC
     FM170400 VRB03KT P6SM BKN090
     FM171200 24004KT P6SM SCT110
     FM171900 26008KT P6SM FEW250=

USA.gov is the U.S. government's official web portal to all federal, state and local government web resources and services.